sensor_id;sensor_type;location;lat;lon;timestamp;pressure;altitude;pressure_sealevel;temperature
53412;BMP280;39307;52.870;13.660;2023-07-16T00:00:10;100051.56;;;22.24
53412;BMP280;39307;52.870;13.660;2023-07-16T00:02:37;100058.53;;;22.20
53412;BMP280;39307;52.870;13.660;2023-07-16T00:05:04;100065.97;;;22.18
53412;BMP280;39307;52.870;13.660;2023-07-16T00:07:30;100070.47;;;22.22
53412;BMP280;39307;52.870;13.660;2023-07-16T00:09:56;100067.81;;;22.22
53412;BMP280;39307;52.870;13.660;2023-07-16T00:12:23;100063.31;;;22.18
53412;BMP280;39307;52.870;13.660;2023-07-16T00:14:49;100061.19;;;22.20
53412;BMP280;39307;52.870;13.660;2023-07-16T00:17:16;100069.19;;;22.20
53412;BMP280;39307;52.870;13.660;2023-07-16T00:19:42;100065.19;;;22.12
53412;BMP280;39307;52.870;13.660;2023-07-16T00:22:08;100060.69;;;22.08
53412;BMP280;39307;52.870;13.660;2023-07-16T00:24:35;100070.00;;;22.05
53412;BMP280;39307;52.870;13.660;2023-07-16T00:27:01;100070.00;;;22.05
53412;BMP280;39307;52.870;13.660;2023-07-16T00:29:27;100076.94;;;22.06
53412;BMP280;39307;52.870;13.660;2023-07-16T00:31:53;100086.00;;;22.00
53412;BMP280;39307;52.870;13.660;2023-07-16T00:34:20;100072.16;;;21.94
53412;BMP280;39307;52.870;13.660;2023-07-16T00:36:46;100073.22;;;21.88
53412;BMP280;39307;52.870;13.660;2023-07-16T00:39:12;100072.69;;;21.86
53412;BMP280;39307;52.870;13.660;2023-07-16T00:41:38;100062.59;;;21.78
53412;BMP280;39307;52.870;13.660;2023-07-16T00:44:05;100069.56;;;21.74
53412;BMP280;39307;52.870;13.660;2023-07-16T00:46:31;100074.34;;;21.72
53412;BMP280;39307;52.870;13.660;2023-07-16T00:48:57;100085.00;;;21.72
53412;BMP280;39307;52.870;13.660;2023-07-16T00:51:24;100089.28;;;21.68
53412;BMP280;39307;52.870;13.660;2023-07-16T00:53:52;100091.13;;;21.68
53412;BMP280;39307;52.870;13.660;2023-07-16T00:56:18;100100.19;;;21.67
53412;BMP280;39307;52.870;13.660;2023-07-16T00:58:45;100107.38;;;21.66
53412;BMP280;39307;52.870;13.660;2023-07-16T01:01:11;100115.91;;;21.63
53412;BMP280;39307;52.870;13.660;2023-07-16T01:03:38;100133.75;;;21.63
53412;BMP280;39307;52.870;13.660;2023-07-16T01:09:04;100148.41;;;21.60
53412;BMP280;39307;52.870;13.660;2023-07-16T01:11:33;100153.19;;;21.63
53412;BMP280;39307;52.870;13.660;2023-07-16T01:14:00;100155.84;;;21.63
53412;BMP280;39307;52.870;13.660;2023-07-16T01:16:27;100156.66;;;21.64
53412;BMP280;39307;52.870;13.660;2023-07-16T01:18:53;100166.50;;;21.58
53412;BMP280;39307;52.870;13.660;2023-07-16T01:21:21;100181.44;;;21.54
53412;BMP280;39307;52.870;13.660;2023-07-16T01:23:56;100199.00;;;21.50
53412;BMP280;39307;52.870;13.660;2023-07-16T01:26:36;100219.50;;;21.50
53412;BMP280;39307;52.870;13.660;2023-07-16T01:29:37;100245.31;;;21.49
53412;BMP280;39307;52.870;13.660;2023-07-16T01:32:05;100270.38;;;21.48
53412;BMP280;39307;52.870;13.660;2023-07-16T01:34:35;100294.88;;;21.50
53412;BMP280;39307;52.870;13.660;2023-07-16T01:37:03;100300.72;;;21.52
53412;BMP280;39307;52.870;13.660;2023-07-16T01:39:31;100312.19;;;21.48
53412;BMP280;39307;52.870;13.660;2023-07-16T01:41:57;100333.72;;;21.46
53412;BMP280;39307;52.870;13.660;2023-07-16T01:44:23;100359.84;;;21.49
53412;BMP280;39307;52.870;13.660;2023-07-16T01:47:04;100363.03;;;21.46
53412;BMP280;39307;52.870;13.660;2023-07-16T01:49:31;100361.72;;;21.44
53412;BMP280;39307;52.870;13.660;2023-07-16T01:51:57;100367.56;;;21.41
53412;BMP280;39307;52.870;13.660;2023-07-16T01:54:24;100390.69;;;21.41
53412;BMP280;39307;52.870;13.660;2023-07-16T01:56:50;100384.56;;;21.40
53412;BMP280;39307;52.870;13.660;2023-07-16T01:59:16;100392.84;;;21.43
53412;BMP280;39307;52.870;13.660;2023-07-16T02:01:42;100394.19;;;21.46
53412;BMP280;39307;52.870;13.660;2023-07-16T02:04:08;100391.78;;;21.49
53412;BMP280;39307;52.870;13.660;2023-07-16T02:06:35;100373.16;;;21.49
53412;BMP280;39307;52.870;13.660;2023-07-16T02:09:01;100370.22;;;21.46
53412;BMP280;39307;52.870;13.660;2023-07-16T02:11:28;100381.13;;;21.44
53412;BMP280;39307;52.870;13.660;2023-07-16T02:13:55;100386.47;;;21.49
53412;BMP280;39307;52.870;13.660;2023-07-16T02:16:21;100383.81;;;21.49
53412;BMP280;39307;52.870;13.660;2023-07-16T02:18:47;100388.34;;;21.49
53412;BMP280;39307;52.870;13.660;2023-07-16T02:21:13;100397.13;;;21.49
53412;BMP280;39307;52.870;13.660;2023-07-16T02:23:39;100393.13;;;21.47
53412;BMP280;39307;52.870;13.660;2023-07-16T02:26:06;100392.88;;;21.48
53412;BMP280;39307;52.870;13.660;2023-07-16T02:28:32;100389.13;;;21.49
53412;BMP280;39307;52.870;13.660;2023-07-16T02:30:58;100385.16;;;21.52
53412;BMP280;39307;52.870;13.660;2023-07-16T02:33:25;100395.31;;;21.60
53412;BMP280;39307;52.870;13.660;2023-07-16T02:35:51;100400.88;;;21.58
53412;BMP280;39307;52.870;13.660;2023-07-16T02:38:17;100393.41;;;21.55
53412;BMP280;39307;52.870;13.660;2023-07-16T02:40:44;100390.22;;;21.58
53412;BMP280;39307;52.870;13.660;2023-07-16T02:43:11;100388.66;;;21.57
53412;BMP280;39307;52.870;13.660;2023-07-16T02:45:37;100387.56;;;21.58
53412;BMP280;39307;52.870;13.660;2023-07-16T02:48:05;100391.03;;;21.59
53412;BMP280;39307;52.870;13.660;2023-07-16T02:50:38;100374.53;;;21.62
53412;BMP280;39307;52.870;13.660;2023-07-16T02:53:05;100372.16;;;21.65
53412;BMP280;39307;52.870;13.660;2023-07-16T02:55:32;100383.63;;;21.66
53412;BMP280;39307;52.870;13.660;2023-07-16T02:57:58;100379.09;;;21.66
53412;BMP280;39307;52.870;13.660;2023-07-16T03:00:25;100387.03;;;21.61
53412;BMP280;39307;52.870;13.660;2023-07-16T03:02:51;100379.59;;;21.53
53412;BMP280;39307;52.870;13.660;2023-07-16T03:05:17;100388.59;;;21.52
53412;BMP280;39307;52.870;13.660;2023-07-16T03:07:43;100387.28;;;21.50
53412;BMP280;39307;52.870;13.660;2023-07-16T03:10:10;100387.00;;;21.46
53412;BMP280;39307;52.870;13.660;2023-07-16T03:12:36;100368.59;;;21.40
53412;BMP280;39307;52.870;13.660;2023-07-16T03:15:02;100369.94;;;21.38
53412;BMP280;39307;52.870;13.660;2023-07-16T03:17:29;100382.69;;;21.36
53412;BMP280;39307;52.870;13.660;2023-07-16T03:19:55;100383.78;;;21.35
53412;BMP280;39307;52.870;13.660;2023-07-16T03:22:21;100383.22;;;21.33
53412;BMP280;39307;52.870;13.660;2023-07-16T03:24:48;100385.88;;;21.33
53412;BMP280;39307;52.870;13.660;2023-07-16T03:27:14;100375.72;;;21.30
53412;BMP280;39307;52.870;13.660;2023-07-16T03:29:40;100375.69;;;21.25
53412;BMP280;39307;52.870;13.660;2023-07-16T03:32:07;100359.97;;;21.23
53412;BMP280;39307;52.870;13.660;2023-07-16T03:34:33;100359.97;;;21.23
53412;BMP280;39307;52.870;13.660;2023-07-16T03:36:59;100346.13;;;21.21
53412;BMP280;39307;52.870;13.660;2023-07-16T03:39:25;100346.13;;;21.16
53412;BMP280;39307;52.870;13.660;2023-07-16T03:41:52;100354.06;;;21.12
53412;BMP280;39307;52.870;13.660;2023-07-16T03:44:18;100353.28;;;21.11
53412;BMP280;39307;52.870;13.660;2023-07-16T03:46:44;100347.16;;;21.11
53412;BMP280;39307;52.870;13.660;2023-07-16T03:49:10;100337.81;;;21.08
53412;BMP280;39307;52.870;13.660;2023-07-16T03:51:36;100333.00;;;21.05
53412;BMP280;39307;52.870;13.660;2023-07-16T03:54:03;100318.06;;;20.99
53412;BMP280;39307;52.870;13.660;2023-07-16T03:56:29;100315.38;;;20.94
53412;BMP280;39307;52.870;13.660;2023-07-16T03:58:55;100315.38;;;20.94
53412;BMP280;39307;52.870;13.660;2023-07-16T04:01:21;100318.84;;;20.95
53412;BMP280;39307;52.870;13.660;2023-07-16T04:03:48;100314.06;;;20.97
53412;BMP280;39307;52.870;13.660;2023-07-16T04:06:14;100324.16;;;20.95
53412;BMP280;39307;52.870;13.660;2023-07-16T04:08:40;100348.94;;;20.95
53412;BMP280;39307;52.870;13.660;2023-07-16T04:11:06;100368.59;;;20.94
53412;BMP280;39307;52.870;13.660;2023-07-16T04:13:33;100366.72;;;20.95
53412;BMP280;39307;52.870;13.660;2023-07-16T04:15:59;100363.28;;;20.94
53412;BMP280;39307;52.870;13.660;2023-07-16T04:18:25;100373.13;;;20.94
53412;BMP280;39307;52.870;13.660;2023-07-16T04:20:52;100372.31;;;20.93
53412;BMP280;39307;52.870;13.660;2023-07-16T04:23:18;100377.38;;;20.95
53412;BMP280;39307;52.870;13.660;2023-07-16T04:25:44;100364.63;;;20.97
53412;BMP280;39307;52.870;13.660;2023-07-16T04:28:12;100380.53;;;20.92
53412;BMP280;39307;52.870;13.660;2023-07-16T04:30:38;100388.81;;;20.90
53412;BMP280;39307;52.870;13.660;2023-07-16T04:33:05;100398.38;;;20.91
53412;BMP280;39307;52.870;13.660;2023-07-16T04:35:32;100405.06;;;20.94
53412;BMP280;39307;52.870;13.660;2023-07-16T04:37:58;100376.34;;;20.96
53412;BMP280;39307;52.870;13.660;2023-07-16T04:40:25;100381.38;;;20.92
53412;BMP280;39307;52.870;13.660;2023-07-16T04:42:51;100369.91;;;20.92
53412;BMP280;39307;52.870;13.660;2023-07-16T04:45:17;100348.66;;;20.97
53412;BMP280;39307;52.870;13.660;2023-07-16T04:47:44;100376.84;;;20.98
53412;BMP280;39307;52.870;13.660;2023-07-16T04:50:10;100379.53;;;20.98
53412;BMP280;39307;52.870;13.660;2023-07-16T04:52:37;100393.94;;;21.02
53412;BMP280;39307;52.870;13.660;2023-07-16T04:55:04;100409.06;;;20.96
53412;BMP280;39307;52.870;13.660;2023-07-16T04:57:31;100409.84;;;20.97
53412;BMP280;39307;52.870;13.660;2023-07-16T04:59:58;100430.59;;;20.95
53412;BMP280;39307;52.870;13.660;2023-07-16T05:02:24;100427.13;;;20.94
53412;BMP280;39307;52.870;13.660;2023-07-16T05:04:50;100429.28;;;20.92
53412;BMP280;39307;52.870;13.660;2023-07-16T05:07:16;100440.94;;;20.91
53412;BMP280;39307;52.870;13.660;2023-07-16T05:09:45;100453.75;;;20.94
53412;BMP280;39307;52.870;13.660;2023-07-16T05:12:12;100459.63;;;20.96
53412;BMP280;39307;52.870;13.660;2023-07-16T05:14:48;100448.69;;;20.93
53412;BMP280;39307;52.870;13.660;2023-07-16T05:17:14;100457.97;;;20.90
53412;BMP280;39307;52.870;13.660;2023-07-16T05:19:40;100447.06;;;20.87
53412;BMP280;39307;52.870;13.660;2023-07-16T05:22:07;100451.56;;;20.86
53412;BMP280;39307;52.870;13.660;2023-07-16T05:24:33;100474.44;;;20.87
53412;BMP280;39307;52.870;13.660;2023-07-16T05:27:00;100494.16;;;20.91
53412;BMP280;39307;52.870;13.660;2023-07-16T05:29:26;100493.41;;;20.96
53412;BMP280;39307;52.870;13.660;2023-07-16T05:31:52;100476.09;;;20.93
53412;BMP280;39307;52.870;13.660;2023-07-16T05:34:18;100493.94;;;20.93
53412;BMP280;39307;52.870;13.660;2023-07-16T05:36:44;100487.31;;;20.95
53412;BMP280;39307;52.870;13.660;2023-07-16T05:39:11;100486.53;;;21.00
53412;BMP280;39307;52.870;13.660;2023-07-16T05:41:37;100488.69;;;21.03
53412;BMP280;39307;52.870;13.660;2023-07-16T05:44:03;100495.34;;;21.05
53412;BMP280;39307;52.870;13.660;2023-07-16T05:46:29;100500.91;;;21.04
53412;BMP280;39307;52.870;13.660;2023-07-16T05:48:55;100496.44;;;21.09
53412;BMP280;39307;52.870;13.660;2023-07-16T05:51:22;100502.56;;;21.10
53412;BMP280;39307;52.870;13.660;2023-07-16T05:53:48;100499.38;;;21.12
53412;BMP280;39307;52.870;13.660;2023-07-16T05:56:14;100501.28;;;21.17
53412;BMP280;39307;52.870;13.660;2023-07-16T05:58:41;100496.53;;;21.24
53412;BMP280;39307;52.870;13.660;2023-07-16T06:01:08;100501.34;;;21.27
53412;BMP280;39307;52.870;13.660;2023-07-16T06:03:34;100487.78;;;21.28
53412;BMP280;39307;52.870;13.660;2023-07-16T06:06:01;100500.50;;;21.21
53412;BMP280;39307;52.870;13.660;2023-07-16T06:08:27;100501.59;;;21.25
53412;BMP280;39307;52.870;13.660;2023-07-16T06:10:54;100508.78;;;21.25
53412;BMP280;39307;52.870;13.660;2023-07-16T06:13:19;100497.84;;;21.21
53412;BMP280;39307;52.870;13.660;2023-07-16T06:15:47;100503.75;;;21.28
53412;BMP280;39307;52.870;13.660;2023-07-16T06:18:13;100500.59;;;21.31
53412;BMP280;39307;52.870;13.660;2023-07-16T06:20:44;100511.06;;;21.38
53412;BMP280;39307;52.870;13.660;2023-07-16T06:23:11;100514.81;;;21.42
53412;BMP280;39307;52.870;13.660;2023-07-16T06:25:37;100509.22;;;21.43
53412;BMP280;39307;52.870;13.660;2023-07-16T06:28:04;100496.19;;;21.46
53412;BMP280;39307;52.870;13.660;2023-07-16T06:30:30;100496.50;;;21.50
53412;BMP280;39307;52.870;13.660;2023-07-16T06:32:56;100484.25;;;21.54
53412;BMP280;39307;52.870;13.660;2023-07-16T06:35:22;100489.06;;;21.62
53412;BMP280;39307;52.870;13.660;2023-07-16T06:37:48;100490.69;;;21.63
53412;BMP280;39307;52.870;13.660;2023-07-16T06:40:15;100493.91;;;21.70
53412;BMP280;39307;52.870;13.660;2023-07-16T06:42:41;100502.19;;;21.73
53412;BMP280;39307;52.870;13.660;2023-07-16T06:45:08;100509.19;;;21.84
53412;BMP280;39307;52.870;13.660;2023-07-16T06:47:34;100496.69;;;21.94
53412;BMP280;39307;52.870;13.660;2023-07-16T06:50:00;100496.19;;;22.02
53412;BMP280;39307;52.870;13.660;2023-07-16T06:52:27;100507.19;;;22.10
53412;BMP280;39307;52.870;13.660;2023-07-16T06:54:54;100509.34;;;22.23
53412;BMP280;39307;52.870;13.660;2023-07-16T06:57:20;100507.50;;;22.33
53412;BMP280;39307;52.870;13.660;2023-07-16T06:59:46;100510.47;;;22.42
53412;BMP280;39307;52.870;13.660;2023-07-16T07:02:12;100506.75;;;22.48
53412;BMP280;39307;52.870;13.660;2023-07-16T07:04:38;100519.00;;;22.49
53412;BMP280;39307;52.870;13.660;2023-07-16T07:07:06;100520.34;;;22.51
53412;BMP280;39307;52.870;13.660;2023-07-16T07:09:32;100505.16;;;22.52
53412;BMP280;39307;52.870;13.660;2023-07-16T07:11:58;100512.09;;;22.58
53412;BMP280;39307;52.870;13.660;2023-07-16T07:14:24;100509.97;;;22.69
53412;BMP280;39307;52.870;13.660;2023-07-16T07:16:51;100517.44;;;22.72
53412;BMP280;39307;52.870;13.660;2023-07-16T07:19:17;100520.66;;;22.74
53412;BMP280;39307;52.870;13.660;2023-07-16T07:21:43;100519.09;;;22.78
53412;BMP280;39307;52.870;13.660;2023-07-16T07:24:09;100530.56;;;22.84
53412;BMP280;39307;52.870;13.660;2023-07-16T07:26:36;100535.09;;;22.88
53412;BMP280;39307;52.870;13.660;2023-07-16T07:29:02;100535.38;;;22.96
53412;BMP280;39307;52.870;13.660;2023-07-16T07:31:28;100536.44;;;23.05
53412;BMP280;39307;52.870;13.660;2023-07-16T07:33:55;100533.50;;;23.07
53412;BMP280;39307;52.870;13.660;2023-07-16T07:36:21;100540.44;;;23.22
53412;BMP280;39307;52.870;13.660;2023-07-16T07:38:47;100539.38;;;23.33
53412;BMP280;39307;52.870;13.660;2023-07-16T07:41:13;100531.59;;;23.37
53412;BMP280;39307;52.870;13.660;2023-07-16T07:43:40;100538.53;;;23.43
53412;BMP280;39307;52.870;13.660;2023-07-16T07:46:06;100541.47;;;23.46
53412;BMP280;39307;52.870;13.660;2023-07-16T07:48:32;100530.53;;;23.57
53412;BMP280;39307;52.870;13.660;2023-07-16T07:50:58;100545.97;;;23.80
53412;BMP280;39307;52.870;13.660;2023-07-16T07:53:24;100539.78;;;23.99
53412;BMP280;39307;52.870;13.660;2023-07-16T07:55:50;100541.84;;;24.07
53412;BMP280;39307;52.870;13.660;2023-07-16T07:58:17;100547.47;;;24.10
53412;BMP280;39307;52.870;13.660;2023-07-16T08:00:43;100556.03;;;24.17
53412;BMP280;39307;52.870;13.660;2023-07-16T08:03:10;100557.88;;;24.27
53412;BMP280;39307;52.870;13.660;2023-07-16T08:05:36;100552.38;;;24.56
53412;BMP280;39307;52.870;13.660;2023-07-16T08:08:02;100554.97;;;24.66
53412;BMP280;39307;52.870;13.660;2023-07-16T08:10:28;100558.69;;;24.65
53412;BMP280;39307;52.870;13.660;2023-07-16T08:12:54;100566.72;;;24.70
53412;BMP280;39307;52.870;13.660;2023-07-16T08:15:20;100573.09;;;24.79
53412;BMP280;39307;52.870;13.660;2023-07-16T08:17:47;100566.25;;;25.01
53412;BMP280;39307;52.870;13.660;2023-07-16T08:20:13;100557.78;;;25.22
53412;BMP280;39307;52.870;13.660;2023-07-16T08:22:40;100561.81;;;25.52
53412;BMP280;39307;52.870;13.660;2023-07-16T08:25:07;100566.97;;;25.95
53412;BMP280;39307;52.870;13.660;2023-07-16T08:27:34;100557.16;;;26.32
53412;BMP280;39307;52.870;13.660;2023-07-16T08:30:00;100559.56;;;26.70
53412;BMP280;39307;52.870;13.660;2023-07-16T08:32:27;100550.72;;;27.06
53412;BMP280;39307;52.870;13.660;2023-07-16T08:34:53;100549.84;;;27.42
53412;BMP280;39307;52.870;13.660;2023-07-16T08:37:19;100553.88;;;27.71
53412;BMP280;39307;52.870;13.660;2023-07-16T08:39:45;100545.16;;;27.92
53412;BMP280;39307;52.870;13.660;2023-07-16T08:42:11;100554.31;;;28.04
53412;BMP280;39307;52.870;13.660;2023-07-16T08:44:38;100558.78;;;28.22
53412;BMP280;39307;52.870;13.660;2023-07-16T08:47:05;100551.88;;;28.42
53412;BMP280;39307;52.870;13.660;2023-07-16T08:49:34;100545.88;;;28.59
53412;BMP280;39307;52.870;13.660;2023-07-16T08:52:02;100547.91;;;28.53
53412;BMP280;39307;52.870;13.660;2023-07-16T08:54:28;100540.31;;;28.55
53412;BMP280;39307;52.870;13.660;2023-07-16T08:56:56;100547.44;;;28.73
53412;BMP280;39307;52.870;13.660;2023-07-16T08:59:23;100551.97;;;28.86
53412;BMP280;39307;52.870;13.660;2023-07-16T09:01:49;100546.31;;;29.09
53412;BMP280;39307;52.870;13.660;2023-07-16T09:04:15;100545.34;;;29.27
53412;BMP280;39307;52.870;13.660;2023-07-16T09:06:42;100545.16;;;29.23
53412;BMP280;39307;52.870;13.660;2023-07-16T09:09:12;100549.34;;;29.37
53412;BMP280;39307;52.870;13.660;2023-07-16T09:11:48;100545.91;;;29.45
53412;BMP280;39307;52.870;13.660;2023-07-16T09:14:21;100550.00;;;29.64
53412;BMP280;39307;52.870;13.660;2023-07-16T09:16:51;100551.38;;;29.92
53412;BMP280;39307;52.870;13.660;2023-07-16T09:19:18;100548.00;;;30.25
53412;BMP280;39307;52.870;13.660;2023-07-16T09:21:51;100556.63;;;30.52
53412;BMP280;39307;52.870;13.660;2023-07-16T09:24:19;100556.03;;;30.63
53412;BMP280;39307;52.870;13.660;2023-07-16T09:26:52;100547.94;;;30.80
53412;BMP280;39307;52.870;13.660;2023-07-16T09:29:19;100549.81;;;31.05
53412;BMP280;39307;52.870;13.660;2023-07-16T09:31:57;100535.69;;;31.24
53412;BMP280;39307;52.870;13.660;2023-07-16T09:34:23;100541.41;;;31.23
53412;BMP280;39307;52.870;13.660;2023-07-16T09:36:50;100560.19;;;31.03
53412;BMP280;39307;52.870;13.660;2023-07-16T09:39:19;100558.09;;;30.75
53412;BMP280;39307;52.870;13.660;2023-07-16T09:41:50;100563.00;;;30.56
53412;BMP280;39307;52.870;13.660;2023-07-16T09:44:17;100580.44;;;30.33
53412;BMP280;39307;52.870;13.660;2023-07-16T09:46:44;100571.81;;;30.23
53412;BMP280;39307;52.870;13.660;2023-07-16T09:49:10;100562.81;;;30.36
53412;BMP280;39307;52.870;13.660;2023-07-16T09:51:44;100555.38;;;30.49
53412;BMP280;39307;52.870;13.660;2023-07-16T09:54:14;100573.94;;;30.43
53412;BMP280;39307;52.870;13.660;2023-07-16T09:56:45;100581.22;;;30.34
53412;BMP280;39307;52.870;13.660;2023-07-16T09:59:17;100573.16;;;30.42
53412;BMP280;39307;52.870;13.660;2023-07-16T10:01:46;100576.94;;;30.41
53412;BMP280;39307;52.870;13.660;2023-07-16T10:04:17;100568.06;;;30.41
53412;BMP280;39307;52.870;13.660;2023-07-16T10:06:59;100571.06;;;30.31
53412;BMP280;39307;52.870;13.660;2023-07-16T10:09:53;100585.78;;;30.17
53412;BMP280;39307;52.870;13.660;2023-07-16T10:12:20;100579.06;;;30.06
53412;BMP280;39307;52.870;13.660;2023-07-16T10:14:54;100572.31;;;29.87
53412;BMP280;39307;52.870;13.660;2023-07-16T10:17:23;100579.09;;;29.76
53412;BMP280;39307;52.870;13.660;2023-07-16T10:22:36;100565.66;;;29.84
53412;BMP280;39307;52.870;13.660;2023-07-16T10:25:07;100564.41;;;29.98
53412;BMP280;39307;52.870;13.660;2023-07-16T10:27:35;100565.81;;;30.18
53412;BMP280;39307;52.870;13.660;2023-07-16T10:30:03;100558.50;;;30.35
53412;BMP280;39307;52.870;13.660;2023-07-16T10:32:30;100555.69;;;30.48
53412;BMP280;39307;52.870;13.660;2023-07-16T10:34:58;100571.44;;;30.63
53412;BMP280;39307;52.870;13.660;2023-07-16T10:37:25;100566.69;;;30.77
53412;BMP280;39307;52.870;13.660;2023-07-16T10:39:53;100568.13;;;30.91
53412;BMP280;39307;52.870;13.660;2023-07-16T10:42:22;100570.50;;;31.01
53412;BMP280;39307;52.870;13.660;2023-07-16T10:44:52;100566.69;;;31.02
53412;BMP280;39307;52.870;13.660;2023-07-16T10:47:23;100569.38;;;31.18
53412;BMP280;39307;52.870;13.660;2023-07-16T10:49:51;100560.31;;;31.23
53412;BMP280;39307;52.870;13.660;2023-07-16T10:52:17;100571.28;;;31.35
53412;BMP280;39307;52.870;13.660;2023-07-16T10:54:44;100571.91;;;31.48
53412;BMP280;39307;52.870;13.660;2023-07-16T10:57:11;100567.88;;;31.63
53412;BMP280;39307;52.870;13.660;2023-07-16T10:59:39;100559.28;;;31.61
53412;BMP280;39307;52.870;13.660;2023-07-16T11:02:10;100574.69;;;31.77
53412;BMP280;39307;52.870;13.660;2023-07-16T11:04:37;100565.88;;;31.96
53412;BMP280;39307;52.870;13.660;2023-07-16T11:07:08;100577.44;;;32.05
53412;BMP280;39307;52.870;13.660;2023-07-16T11:09:40;100567.59;;;32.01
53412;BMP280;39307;52.870;13.660;2023-07-16T11:12:11;100566.25;;;32.15
53412;BMP280;39307;52.870;13.660;2023-07-16T11:14:38;100562.00;;;32.06
53412;BMP280;39307;52.870;13.660;2023-07-16T11:17:08;100572.44;;;32.24
53412;BMP280;39307;52.870;13.660;2023-07-16T11:19:38;100578.47;;;32.50
53412;BMP280;39307;52.870;13.660;2023-07-16T11:22:06;100570.69;;;32.68
53412;BMP280;39307;52.870;13.660;2023-07-16T11:24:43;100565.47;;;32.72
53412;BMP280;39307;52.870;13.660;2023-07-16T11:27:34;100566.88;;;32.89
53412;BMP280;39307;52.870;13.660;2023-07-16T11:30:00;100564.41;;;33.16
53412;BMP280;39307;52.870;13.660;2023-07-16T11:32:34;100564.28;;;33.33
53412;BMP280;39307;52.870;13.660;2023-07-16T11:35:02;100552.44;;;33.49
53412;BMP280;39307;52.870;13.660;2023-07-16T11:37:31;100554.13;;;33.66
53412;BMP280;39307;52.870;13.660;2023-07-16T11:40:09;100564.59;;;33.75
53412;BMP280;39307;52.870;13.660;2023-07-16T11:42:37;100557.94;;;33.85
53412;BMP280;39307;52.870;13.660;2023-07-16T11:45:05;100563.94;;;33.90
53412;BMP280;39307;52.870;13.660;2023-07-16T11:47:41;100568.34;;;33.95
53412;BMP280;39307;52.870;13.660;2023-07-16T11:50:08;100566.88;;;33.97
53412;BMP280;39307;52.870;13.660;2023-07-16T11:52:34;100567.09;;;33.80
53412;BMP280;39307;52.870;13.660;2023-07-16T11:55:01;100567.88;;;33.81
53412;BMP280;39307;52.870;13.660;2023-07-16T11:57:27;100559.75;;;33.93
53412;BMP280;39307;52.870;13.660;2023-07-16T11:59:54;100556.13;;;34.12
53412;BMP280;39307;52.870;13.660;2023-07-16T12:02:20;100558.50;;;34.26
53412;BMP280;39307;52.870;13.660;2023-07-16T12:04:47;100558.59;;;34.41
53412;BMP280;39307;52.870;13.660;2023-07-16T12:07:13;100568.00;;;34.55
53412;BMP280;39307;52.870;13.660;2023-07-16T12:09:40;100564.81;;;34.53
53412;BMP280;39307;52.870;13.660;2023-07-16T12:12:06;100565.75;;;34.33
53412;BMP280;39307;52.870;13.660;2023-07-16T12:14:33;100564.19;;;34.21
53412;BMP280;39307;52.870;13.660;2023-07-16T12:16:59;100561.00;;;34.07
53412;BMP280;39307;52.870;13.660;2023-07-16T12:19:25;100579.22;;;33.95
53412;BMP280;39307;52.870;13.660;2023-07-16T12:21:51;100571.28;;;33.90
53412;BMP280;39307;52.870;13.660;2023-07-16T12:24:18;100572.63;;;33.84
53412;BMP280;39307;52.870;13.660;2023-07-16T12:26:44;100564.06;;;33.82
53412;BMP280;39307;52.870;13.660;2023-07-16T12:29:11;100574.00;;;34.01
53412;BMP280;39307;52.870;13.660;2023-07-16T12:31:37;100567.91;;;34.28
53412;BMP280;39307;52.870;13.660;2023-07-16T12:34:03;100570.53;;;34.36
53412;BMP280;39307;52.870;13.660;2023-07-16T12:36:30;100567.81;;;34.25
53412;BMP280;39307;52.870;13.660;2023-07-16T12:38:57;100570.28;;;34.06
53412;BMP280;39307;52.870;13.660;2023-07-16T12:41:23;100575.91;;;33.89
53412;BMP280;39307;52.870;13.660;2023-07-16T12:43:49;100575.53;;;33.67
53412;BMP280;39307;52.870;13.660;2023-07-16T12:46:15;100579.69;;;33.53
53412;BMP280;39307;52.870;13.660;2023-07-16T12:48:42;100566.38;;;33.60
53412;BMP280;39307;52.870;13.660;2023-07-16T12:51:08;100571.09;;;33.51
53412;BMP280;39307;52.870;13.660;2023-07-16T12:53:34;100578.09;;;33.52
53412;BMP280;39307;52.870;13.660;2023-07-16T12:56:01;100565.88;;;33.46
53412;BMP280;39307;52.870;13.660;2023-07-16T12:58:27;100572.72;;;33.64
53412;BMP280;39307;52.870;13.660;2023-07-16T13:00:54;100565.88;;;33.78
53412;BMP280;39307;52.870;13.660;2023-07-16T13:03:20;100573.09;;;33.86
53412;BMP280;39307;52.870;13.660;2023-07-16T13:05:47;100573.00;;;34.06
53412;BMP280;39307;52.870;13.660;2023-07-16T13:08:13;100571.66;;;34.12
53412;BMP280;39307;52.870;13.660;2023-07-16T13:10:40;100573.88;;;33.98
53412;BMP280;39307;52.870;13.660;2023-07-16T13:13:06;100577.88;;;34.01
53412;BMP280;39307;52.870;13.660;2023-07-16T13:15:32;100579.69;;;33.97
53412;BMP280;39307;52.870;13.660;2023-07-16T13:17:58;100582.41;;;33.97
53412;BMP280;39307;52.870;13.660;2023-07-16T13:20:25;100584.75;;;33.98
53412;BMP280;39307;52.870;13.660;2023-07-16T13:22:51;100579.78;;;33.88
53412;BMP280;39307;52.870;13.660;2023-07-16T13:25:17;100578.41;;;33.82
53412;BMP280;39307;52.870;13.660;2023-07-16T13:27:43;100584.06;;;33.89
53412;BMP280;39307;52.870;13.660;2023-07-16T13:30:10;100578.19;;;33.87
53412;BMP280;39307;52.870;13.660;2023-07-16T13:32:36;100584.16;;;33.81
53412;BMP280;39307;52.870;13.660;2023-07-16T13:35:03;100581.34;;;33.77
53412;BMP280;39307;52.870;13.660;2023-07-16T13:37:29;100583.94;;;33.74
53412;BMP280;39307;52.870;13.660;2023-07-16T13:39:55;100590.81;;;33.60
53412;BMP280;39307;52.870;13.660;2023-07-16T13:42:22;100602.41;;;33.48
53412;BMP280;39307;52.870;13.660;2023-07-16T13:44:48;100612.44;;;33.36
53412;BMP280;39307;52.870;13.660;2023-07-16T13:47:14;100605.44;;;32.95
53412;BMP280;39307;52.870;13.660;2023-07-16T13:49:41;100612.59;;;32.79